Fort Raleigh City, North Carolina
Current Conditions -  °F | °C
As of 10:55 AM on Tuesday 21 Oct 2014 (Local Time) from KMQI Reporting Station
Scattered Clouds Scattered Clouds  
Wind Chill: 69°   Ceiling: Unl
Heat Index: 69°   Visibility: 10mi
Dew Point: 58°   Wind: 8mph
Humidity: 68%   Direction: 300°WNW
Pressure: 29.91"   Gusts: NA
Location:  35.8834°N, 75.6616°W
Report Text: KMQI 211455Z AUTO 30007KT 10SM SCT120 21/14 A2991 RMK AO2 T02050144
Loading
Personal Weather Stations






























Interactive Weather Map
Tropical Storm Tracking
New forecast layout! Learn more

10-Day Weather Forecast

Advertisements
Track Severe Weather on mobile